sensor_id;sensor_type;location;lat;lon;timestamp;temperature;humidity
30304;DHT22;17112;48.636;10.152;2023-07-29T00:00:20;19.70;74.80
30304;DHT22;17112;48.636;10.152;2023-07-29T00:02:46;19.70;74.70
30304;DHT22;17112;48.636;10.152;2023-07-29T00:05:11;19.70;74.70
30304;DHT22;17112;48.636;10.152;2023-07-29T00:07:37;19.70;74.70
30304;DHT22;17112;48.636;10.152;2023-07-29T00:10:03;19.80;74.90
30304;DHT22;17112;48.636;10.152;2023-07-29T00:12:29;19.80;74.90
30304;DHT22;17112;48.636;10.152;2023-07-29T00:14:55;19.80;74.90
30304;DHT22;17112;48.636;10.152;2023-07-29T00:17:20;19.80;74.80
30304;DHT22;17112;48.636;10.152;2023-07-29T00:19:46;19.80;74.60
30304;DHT22;17112;48.636;10.152;2023-07-29T00:22:12;19.80;74.50
30304;DHT22;17112;48.636;10.152;2023-07-29T00:24:39;19.80;74.40
30304;DHT22;17112;48.636;10.152;2023-07-29T00:27:05;19.80;74.40
30304;DHT22;17112;48.636;10.152;2023-07-29T00:29:31;19.80;74.30
30304;DHT22;17112;48.636;10.152;2023-07-29T00:31:56;19.80;74.20
30304;DHT22;17112;48.636;10.152;2023-07-29T00:34:22;19.80;74.20
30304;DHT22;17112;48.636;10.152;2023-07-29T00:36:48;19.80;74.10
30304;DHT22;17112;48.636;10.152;2023-07-29T00:39:14;19.70;74.00
30304;DHT22;17112;48.636;10.152;2023-07-29T00:41:40;19.70;74.10
30304;DHT22;17112;48.636;10.152;2023-07-29T00:44:06;19.70;74.00
30304;DHT22;17112;48.636;10.152;2023-07-29T00:46:34;19.60;74.00
30304;DHT22;17112;48.636;10.152;2023-07-29T00:49:01;19.60;74.20
30304;DHT22;17112;48.636;10.152;2023-07-29T00:51:27;19.60;74.10
30304;DHT22;17112;48.636;10.152;2023-07-29T00:53:52;19.60;74.20
30304;DHT22;17112;48.636;10.152;2023-07-29T00:56:18;19.50;74.20
30304;DHT22;17112;48.636;10.152;2023-07-29T00:58:44;19.50;74.20
30304;DHT22;17112;48.636;10.152;2023-07-29T01:01:10;19.50;74.20
30304;DHT22;17112;48.636;10.152;2023-07-29T01:03:35;19.40;74.20
30304;DHT22;17112;48.636;10.152;2023-07-29T01:09:14;19.40;74.80
30304;DHT22;17112;48.636;10.152;2023-07-29T01:12:01;19.40;75.00
30304;DHT22;17112;48.636;10.152;2023-07-29T01:17:25;19.40;74.90
30304;DHT22;17112;48.636;10.152;2023-07-29T01:20:08;19.30;74.90
30304;DHT22;17112;48.636;10.152;2023-07-29T01:22:36;19.30;75.00
30304;DHT22;17112;48.636;10.152;2023-07-29T01:25:03;19.30;74.60
30304;DHT22;17112;48.636;10.152;2023-07-29T01:27:29;19.30;74.80
30304;DHT22;17112;48.636;10.152;2023-07-29T01:29:55;19.30;74.80
30304;DHT22;17112;48.636;10.152;2023-07-29T01:32:42;19.30;74.90
30304;DHT22;17112;48.636;10.152;2023-07-29T01:37:55;19.30;75.70
30304;DHT22;17112;48.636;10.152;2023-07-29T01:40:23;19.30;75.20
30304;DHT22;17112;48.636;10.152;2023-07-29T01:42:51;19.20;75.00
30304;DHT22;17112;48.636;10.152;2023-07-29T01:45:17;19.30;75.10
30304;DHT22;17112;48.636;10.152;2023-07-29T01:47:43;19.30;75.20
30304;DHT22;17112;48.636;10.152;2023-07-29T01:50:09;19.30;75.20
30304;DHT22;17112;48.636;10.152;2023-07-29T01:52:35;19.20;75.10
30304;DHT22;17112;48.636;10.152;2023-07-29T01:55:01;19.20;75.00
30304;DHT22;17112;48.636;10.152;2023-07-29T01:57:27;19.30;75.10
30304;DHT22;17112;48.636;10.152;2023-07-29T01:59:53;19.20;75.10
30304;DHT22;17112;48.636;10.152;2023-07-29T02:02:18;19.20;75.10
30304;DHT22;17112;48.636;10.152;2023-07-29T02:04:44;19.20;75.10
30304;DHT22;17112;48.636;10.152;2023-07-29T02:07:10;19.20;75.10
30304;DHT22;17112;48.636;10.152;2023-07-29T02:09:36;19.20;75.10
30304;DHT22;17112;48.636;10.152;2023-07-29T02:12:02;19.20;75.10
30304;DHT22;17112;48.636;10.152;2023-07-29T02:14:28;19.20;75.20
30304;DHT22;17112;48.636;10.152;2023-07-29T02:16:53;19.20;75.20
30304;DHT22;17112;48.636;10.152;2023-07-29T02:19:19;19.20;75.30
30304;DHT22;17112;48.636;10.152;2023-07-29T02:21:45;19.20;75.30
30304;DHT22;17112;48.636;10.152;2023-07-29T02:24:10;19.10;75.40
30304;DHT22;17112;48.636;10.152;2023-07-29T02:26:36;19.20;75.50
30304;DHT22;17112;48.636;10.152;2023-07-29T02:29:02;19.10;75.40
30304;DHT22;17112;48.636;10.152;2023-07-29T02:31:27;19.10;75.40
30304;DHT22;17112;48.636;10.152;2023-07-29T02:33:53;19.10;75.50
30304;DHT22;17112;48.636;10.152;2023-07-29T02:36:19;19.10;75.60
30304;DHT22;17112;48.636;10.152;2023-07-29T02:38:45;19.10;75.70
30304;DHT22;17112;48.636;10.152;2023-07-29T02:41:11;19.10;75.80
30304;DHT22;17112;48.636;10.152;2023-07-29T02:43:42;19.10;75.80
30304;DHT22;17112;48.636;10.152;2023-07-29T02:46:08;19.10;76.00
30304;DHT22;17112;48.636;10.152;2023-07-29T02:48:34;19.10;76.00
30304;DHT22;17112;48.636;10.152;2023-07-29T02:51:00;19.10;76.00
30304;DHT22;17112;48.636;10.152;2023-07-29T02:53:25;19.10;76.00
30304;DHT22;17112;48.636;10.152;2023-07-29T02:55:51;19.10;75.90
30304;DHT22;17112;48.636;10.152;2023-07-29T02:58:17;19.10;75.90
30304;DHT22;17112;48.636;10.152;2023-07-29T03:00:42;19.10;76.00
30304;DHT22;17112;48.636;10.152;2023-07-29T03:03:09;19.10;75.80
30304;DHT22;17112;48.636;10.152;2023-07-29T03:05:35;19.10;75.80
30304;DHT22;17112;48.636;10.152;2023-07-29T03:08:01;19.10;75.80
30304;DHT22;17112;48.636;10.152;2023-07-29T03:10:27;19.10;75.70
30304;DHT22;17112;48.636;10.152;2023-07-29T03:12:55;19.10;75.70
30304;DHT22;17112;48.636;10.152;2023-07-29T03:15:25;19.00;75.90
30304;DHT22;17112;48.636;10.152;2023-07-29T03:17:51;19.10;75.90
30304;DHT22;17112;48.636;10.152;2023-07-29T03:20:17;19.00;75.70
30304;DHT22;17112;48.636;10.152;2023-07-29T03:22:44;19.00;75.70
30304;DHT22;17112;48.636;10.152;2023-07-29T03:25:10;19.00;75.70
30304;DHT22;17112;48.636;10.152;2023-07-29T03:27:35;18.90;75.60
30304;DHT22;17112;48.636;10.152;2023-07-29T03:30:06;18.90;75.70
30304;DHT22;17112;48.636;10.152;2023-07-29T03:32:32;18.90;75.70
30304;DHT22;17112;48.636;10.152;2023-07-29T03:34:58;18.80;75.70
30304;DHT22;17112;48.636;10.152;2023-07-29T03:37:24;18.80;75.70
30304;DHT22;17112;48.636;10.152;2023-07-29T03:39:49;18.80;75.70
30304;DHT22;17112;48.636;10.152;2023-07-29T03:42:17;18.80;75.60
30304;DHT22;17112;48.636;10.152;2023-07-29T03:44:43;18.80;75.60
30304;DHT22;17112;48.636;10.152;2023-07-29T03:47:09;18.70;75.60
30304;DHT22;17112;48.636;10.152;2023-07-29T03:49:34;18.70;75.70
30304;DHT22;17112;48.636;10.152;2023-07-29T03:52:00;18.70;75.80
30304;DHT22;17112;48.636;10.152;2023-07-29T03:54:26;18.70;76.00
30304;DHT22;17112;48.636;10.152;2023-07-29T03:56:51;18.70;76.10
30304;DHT22;17112;48.636;10.152;2023-07-29T03:59:17;18.70;77.00
30304;DHT22;17112;48.636;10.152;2023-07-29T04:01:43;18.70;76.50
30304;DHT22;17112;48.636;10.152;2023-07-29T04:04:09;18.60;76.60
30304;DHT22;17112;48.636;10.152;2023-07-29T04:06:34;18.70;76.70
30304;DHT22;17112;48.636;10.152;2023-07-29T04:09:00;18.70;76.90
30304;DHT22;17112;48.636;10.152;2023-07-29T04:11:26;18.70;77.00
30304;DHT22;17112;48.636;10.152;2023-07-29T04:13:51;18.60;77.00
30304;DHT22;17112;48.636;10.152;2023-07-29T04:16:17;18.60;77.30
30304;DHT22;17112;48.636;10.152;2023-07-29T04:18:43;18.60;77.50
30304;DHT22;17112;48.636;10.152;2023-07-29T04:21:09;18.70;77.90
30304;DHT22;17112;48.636;10.152;2023-07-29T04:23:34;18.70;77.90
30304;DHT22;17112;48.636;10.152;2023-07-29T04:26:00;18.70;78.00
30304;DHT22;17112;48.636;10.152;2023-07-29T04:28:26;18.70;77.80
30304;DHT22;17112;48.636;10.152;2023-07-29T04:30:52;18.70;78.00
30304;DHT22;17112;48.636;10.152;2023-07-29T04:33:17;18.80;78.10
30304;DHT22;17112;48.636;10.152;2023-07-29T04:35:43;18.70;77.80
30304;DHT22;17112;48.636;10.152;2023-07-29T04:38:08;18.70;77.80
30304;DHT22;17112;48.636;10.152;2023-07-29T04:40:34;18.70;78.00
30304;DHT22;17112;48.636;10.152;2023-07-29T04:43:01;18.70;78.00
30304;DHT22;17112;48.636;10.152;2023-07-29T04:45:30;18.70;78.20
30304;DHT22;17112;48.636;10.152;2023-07-29T04:47:57;18.80;78.70
30304;DHT22;17112;48.636;10.152;2023-07-29T04:50:23;18.80;78.40
30304;DHT22;17112;48.636;10.152;2023-07-29T04:52:49;18.80;78.40
30304;DHT22;17112;48.636;10.152;2023-07-29T04:55:14;18.80;78.30
30304;DHT22;17112;48.636;10.152;2023-07-29T04:57:40;18.80;78.30
30304;DHT22;17112;48.636;10.152;2023-07-29T05:00:06;18.80;78.20
30304;DHT22;17112;48.636;10.152;2023-07-29T05:02:32;18.80;78.10
30304;DHT22;17112;48.636;10.152;2023-07-29T05:04:58;18.80;78.00
30304;DHT22;17112;48.636;10.152;2023-07-29T05:07:23;18.80;78.20
30304;DHT22;17112;48.636;10.152;2023-07-29T05:09:49;18.80;78.30
30304;DHT22;17112;48.636;10.152;2023-07-29T05:12:15;18.90;78.50
30304;DHT22;17112;48.636;10.152;2023-07-29T05:14:40;18.90;78.60
30304;DHT22;17112;48.636;10.152;2023-07-29T05:17:06;18.90;78.40
30304;DHT22;17112;48.636;10.152;2023-07-29T05:19:31;18.90;78.40
30304;DHT22;17112;48.636;10.152;2023-07-29T05:21:58;18.90;78.40
30304;DHT22;17112;48.636;10.152;2023-07-29T05:24:24;19.00;78.50
30304;DHT22;17112;48.636;10.152;2023-07-29T05:26:49;19.00;78.50
30304;DHT22;17112;48.636;10.152;2023-07-29T05:29:15;19.00;78.60
30304;DHT22;17112;48.636;10.152;2023-07-29T05:31:41;19.00;78.70
30304;DHT22;17112;48.636;10.152;2023-07-29T05:34:07;19.10;78.80
30304;DHT22;17112;48.636;10.152;2023-07-29T05:36:32;19.10;78.80
30304;DHT22;17112;48.636;10.152;2023-07-29T05:38:58;19.10;78.70
30304;DHT22;17112;48.636;10.152;2023-07-29T05:41:24;19.20;78.70
30304;DHT22;17112;48.636;10.152;2023-07-29T05:43:51;19.20;78.90
30304;DHT22;17112;48.636;10.152;2023-07-29T05:46:17;19.30;79.00
30304;DHT22;17112;48.636;10.152;2023-07-29T05:48:42;19.30;78.90
30304;DHT22;17112;48.636;10.152;2023-07-29T05:51:08;19.40;78.90
30304;DHT22;17112;48.636;10.152;2023-07-29T05:53:34;19.40;79.00
30304;DHT22;17112;48.636;10.152;2023-07-29T05:55:59;19.40;78.70
30304;DHT22;17112;48.636;10.152;2023-07-29T05:58:25;19.50;78.40
30304;DHT22;17112;48.636;10.152;2023-07-29T06:00:51;19.50;78.30
30304;DHT22;17112;48.636;10.152;2023-07-29T06:03:17;19.60;78.60
30304;DHT22;17112;48.636;10.152;2023-07-29T06:05:42;19.60;78.60
30304;DHT22;17112;48.636;10.152;2023-07-29T06:08:08;19.60;78.40
30304;DHT22;17112;48.636;10.152;2023-07-29T06:10:34;19.70;78.20
30304;DHT22;17112;48.636;10.152;2023-07-29T06:13:00;19.70;78.10
30304;DHT22;17112;48.636;10.152;2023-07-29T06:15:25;19.80;78.20
30304;DHT22;17112;48.636;10.152;2023-07-29T06:17:51;19.80;78.00
30304;DHT22;17112;48.636;10.152;2023-07-29T06:20:17;19.80;77.90
30304;DHT22;17112;48.636;10.152;2023-07-29T06:22:42;19.90;77.80
30304;DHT22;17112;48.636;10.152;2023-07-29T06:25:08;19.80;77.80
30304;DHT22;17112;48.636;10.152;2023-07-29T06:27:34;19.80;77.80
30304;DHT22;17112;48.636;10.152;2023-07-29T06:30:00;19.80;78.00
30304;DHT22;17112;48.636;10.152;2023-07-29T06:32:26;19.80;78.10
30304;DHT22;17112;48.636;10.152;2023-07-29T06:34:52;19.80;78.30
30304;DHT22;17112;48.636;10.152;2023-07-29T06:37:20;19.80;78.40
30304;DHT22;17112;48.636;10.152;2023-07-29T06:39:45;19.80;78.50
30304;DHT22;17112;48.636;10.152;2023-07-29T06:42:11;19.80;78.70
30304;DHT22;17112;48.636;10.152;2023-07-29T06:44:37;19.80;79.00
30304;DHT22;17112;48.636;10.152;2023-07-29T06:47:03;19.90;79.40
30304;DHT22;17112;48.636;10.152;2023-07-29T06:49:28;19.90;80.00
30304;DHT22;17112;48.636;10.152;2023-07-29T06:51:54;20.00;80.90
30304;DHT22;17112;48.636;10.152;2023-07-29T06:54:24;20.10;81.60
30304;DHT22;17112;48.636;10.152;2023-07-29T06:56:51;20.30;82.50
30304;DHT22;17112;48.636;10.152;2023-07-29T06:59:17;20.50;81.80
30304;DHT22;17112;48.636;10.152;2023-07-29T07:01:42;20.70;81.80
30304;DHT22;17112;48.636;10.152;2023-07-29T07:04:08;20.80;81.40
30304;DHT22;17112;48.636;10.152;2023-07-29T07:06:34;21.00;81.10
30304;DHT22;17112;48.636;10.152;2023-07-29T07:08:59;21.20;81.10
30304;DHT22;17112;48.636;10.152;2023-07-29T07:11:25;21.30;80.60
30304;DHT22;17112;48.636;10.152;2023-07-29T07:13:50;21.40;80.30
30304;DHT22;17112;48.636;10.152;2023-07-29T07:16:16;21.60;80.00
30304;DHT22;17112;48.636;10.152;2023-07-29T07:18:42;21.70;79.50
30304;DHT22;17112;48.636;10.152;2023-07-29T07:21:07;21.80;79.20
30304;DHT22;17112;48.636;10.152;2023-07-29T07:23:33;21.90;78.90
30304;DHT22;17112;48.636;10.152;2023-07-29T07:25:59;22.00;78.50
30304;DHT22;17112;48.636;10.152;2023-07-29T07:28:24;22.10;78.50
30304;DHT22;17112;48.636;10.152;2023-07-29T07:30:51;22.20;78.20
30304;DHT22;17112;48.636;10.152;2023-07-29T07:33:16;22.30;78.20
30304;DHT22;17112;48.636;10.152;2023-07-29T07:35:42;22.40;77.80
30304;DHT22;17112;48.636;10.152;2023-07-29T07:38:08;22.50;77.70
30304;DHT22;17112;48.636;10.152;2023-07-29T07:40:35;22.60;77.70
30304;DHT22;17112;48.636;10.152;2023-07-29T07:43:01;22.70;77.30
30304;DHT22;17112;48.636;10.152;2023-07-29T07:45:27;22.80;77.40
30304;DHT22;17112;48.636;10.152;2023-07-29T07:47:53;22.90;77.10
30304;DHT22;17112;48.636;10.152;2023-07-29T07:50:20;23.10;76.90
30304;DHT22;17112;48.636;10.152;2023-07-29T07:52:46;23.20;76.30
30304;DHT22;17112;48.636;10.152;2023-07-29T07:55:11;23.30;75.70
30304;DHT22;17112;48.636;10.152;2023-07-29T07:57:37;23.40;75.00
30304;DHT22;17112;48.636;10.152;2023-07-29T08:00:03;23.40;74.10
30304;DHT22;17112;48.636;10.152;2023-07-29T08:02:30;23.40;73.90
30304;DHT22;17112;48.636;10.152;2023-07-29T08:04:55;23.40;73.30
30304;DHT22;17112;48.636;10.152;2023-07-29T08:07:21;23.40;73.30
30304;DHT22;17112;48.636;10.152;2023-07-29T08:09:47;23.40;73.30
30304;DHT22;17112;48.636;10.152;2023-07-29T08:12:12;23.30;73.20
30304;DHT22;17112;48.636;10.152;2023-07-29T08:14:38;23.30;73.20
30304;DHT22;17112;48.636;10.152;2023-07-29T08:17:04;23.20;73.30
30304;DHT22;17112;48.636;10.152;2023-07-29T08:19:30;23.10;73.60
30304;DHT22;17112;48.636;10.152;2023-07-29T08:21:55;23.00;73.20
30304;DHT22;17112;48.636;10.152;2023-07-29T08:24:21;22.90;71.40
30304;DHT22;17112;48.636;10.152;2023-07-29T08:26:47;22.80;70.10
30304;DHT22;17112;48.636;10.152;2023-07-29T08:29:13;22.60;70.20
30304;DHT22;17112;48.636;10.152;2023-07-29T08:31:39;22.60;70.60
30304;DHT22;17112;48.636;10.152;2023-07-29T08:34:04;22.50;70.80
30304;DHT22;17112;48.636;10.152;2023-07-29T08:36:30;22.50;71.00
30304;DHT22;17112;48.636;10.152;2023-07-29T08:38:56;22.50;71.90
30304;DHT22;17112;48.636;10.152;2023-07-29T08:41:26;22.50;72.60
30304;DHT22;17112;48.636;10.152;2023-07-29T08:44:10;22.60;72.80
30304;DHT22;17112;48.636;10.152;2023-07-29T08:46:39;22.70;73.30
30304;DHT22;17112;48.636;10.152;2023-07-29T08:49:05;22.80;73.50
30304;DHT22;17112;48.636;10.152;2023-07-29T08:51:31;22.90;72.80
30304;DHT22;17112;48.636;10.152;2023-07-29T08:53:59;23.00;73.00
30304;DHT22;17112;48.636;10.152;2023-07-29T08:56:24;23.10;72.50
30304;DHT22;17112;48.636;10.152;2023-07-29T08:58:51;23.20;72.10
30304;DHT22;17112;48.636;10.152;2023-07-29T09:01:17;23.20;71.10
30304;DHT22;17112;48.636;10.152;2023-07-29T09:03:43;23.30;71.20
30304;DHT22;17112;48.636;10.152;2023-07-29T09:06:08;23.30;71.40
30304;DHT22;17112;48.636;10.152;2023-07-29T09:08:34;23.30;71.60
30304;DHT22;17112;48.636;10.152;2023-07-29T09:11:00;23.30;71.60
30304;DHT22;17112;48.636;10.152;2023-07-29T09:13:26;23.30;71.70
30304;DHT22;17112;48.636;10.152;2023-07-29T09:15:57;23.30;72.10
30304;DHT22;17112;48.636;10.152;2023-07-29T09:18:23;23.40;72.30
30304;DHT22;17112;48.636;10.152;2023-07-29T09:20:51;23.40;72.30
30304;DHT22;17112;48.636;10.152;2023-07-29T09:23:17;23.50;72.00
30304;DHT22;17112;48.636;10.152;2023-07-29T09:25:43;23.50;72.20
30304;DHT22;17112;48.636;10.152;2023-07-29T09:28:15;23.60;72.50
30304;DHT22;17112;48.636;10.152;2023-07-29T09:30:45;23.60;72.00
30304;DHT22;17112;48.636;10.152;2023-07-29T09:33:11;23.70;71.80
30304;DHT22;17112;48.636;10.152;2023-07-29T09:35:37;23.80;71.40
30304;DHT22;17112;48.636;10.152;2023-07-29T09:38:04;23.80;71.30
30304;DHT22;17112;48.636;10.152;2023-07-29T09:40:40;23.80;72.20
30304;DHT22;17112;48.636;10.152;2023-07-29T09:43:09;23.90;72.40
30304;DHT22;17112;48.636;10.152;2023-07-29T09:45:35;23.90;71.20
30304;DHT22;17112;48.636;10.152;2023-07-29T09:48:02;24.00;70.90
30304;DHT22;17112;48.636;10.152;2023-07-29T09:50:28;24.00;70.70
30304;DHT22;17112;48.636;10.152;2023-07-29T09:52:55;24.10;71.20
30304;DHT22;17112;48.636;10.152;2023-07-29T09:55:24;24.20;71.00
30304;DHT22;17112;48.636;10.152;2023-07-29T09:57:57;24.20;70.40
30304;DHT22;17112;48.636;10.152;2023-07-29T10:00:31;24.30;70.80
30304;DHT22;17112;48.636;10.152;2023-07-29T10:02:58;24.30;71.00
30304;DHT22;17112;48.636;10.152;2023-07-29T10:05:26;24.50;70.80
30304;DHT22;17112;48.636;10.152;2023-07-29T10:07:52;24.50;69.80
30304;DHT22;17112;48.636;10.152;2023-07-29T10:10:19;24.50;69.50
30304;DHT22;17112;48.636;10.152;2023-07-29T10:12:46;24.60;70.40
30304;DHT22;17112;48.636;10.152;2023-07-29T10:15:12;24.60;69.60
30304;DHT22;17112;48.636;10.152;2023-07-29T10:17:38;24.60;68.80
30304;DHT22;17112;48.636;10.152;2023-07-29T10:20:08;24.60;68.40
30304;DHT22;17112;48.636;10.152;2023-07-29T10:22:40;24.60;68.00
30304;DHT22;17112;48.636;10.152;2023-07-29T10:30:13;24.50;67.90
30304;DHT22;17112;48.636;10.152;2023-07-29T10:32:42;24.60;68.00
30304;DHT22;17112;48.636;10.152;2023-07-29T10:35:09;24.60;68.60
30304;DHT22;17112;48.636;10.152;2023-07-29T10:37:35;24.70;68.60
30304;DHT22;17112;48.636;10.152;2023-07-29T10:40:00;24.90;68.30
30304;DHT22;17112;48.636;10.152;2023-07-29T10:42:31;25.00;68.70
30304;DHT22;17112;48.636;10.152;2023-07-29T10:44:56;25.20;68.10
30304;DHT22;17112;48.636;10.152;2023-07-29T10:47:27;25.40;68.10
30304;DHT22;17112;48.636;10.152;2023-07-29T10:49:57;25.50;66.70
30304;DHT22;17112;48.636;10.152;2023-07-29T10:52:43;25.70;65.70
30304;DHT22;17112;48.636;10.152;2023-07-29T10:55:39;25.90;65.50
30304;DHT22;17112;48.636;10.152;2023-07-29T10:58:14;26.00;64.50
30304;DHT22;17112;48.636;10.152;2023-07-29T11:00:43;26.10;64.80
30304;DHT22;17112;48.636;10.152;2023-07-29T11:03:10;26.20;65.10
30304;DHT22;17112;48.636;10.152;2023-07-29T11:05:43;26.30;64.10
30304;DHT22;17112;48.636;10.152;2023-07-29T11:08:20;26.40;63.70
30304;DHT22;17112;48.636;10.152;2023-07-29T11:11:06;26.50;63.10
30304;DHT22;17112;48.636;10.152;2023-07-29T11:13:34;26.60;62.10
30304;DHT22;17112;48.636;10.152;2023-07-29T11:16:00;26.70;62.60
30304;DHT22;17112;48.636;10.152;2023-07-29T11:18:28;26.80;62.60
30304;DHT22;17112;48.636;10.152;2023-07-29T11:20:55;26.90;61.80
30304;DHT22;17112;48.636;10.152;2023-07-29T11:23:27;27.00;62.00
30304;DHT22;17112;48.636;10.152;2023-07-29T11:25:54;27.20;61.50
30304;DHT22;17112;48.636;10.152;2023-07-29T11:28:20;27.30;60.50
30304;DHT22;17112;48.636;10.152;2023-07-29T11:30:47;27.40;60.10
30304;DHT22;17112;48.636;10.152;2023-07-29T11:33:16;27.50;60.20
30304;DHT22;17112;48.636;10.152;2023-07-29T11:35:42;27.70;59.50
30304;DHT22;17112;48.636;10.152;2023-07-29T11:38:08;27.70;58.70
30304;DHT22;17112;48.636;10.152;2023-07-29T11:40:34;27.90;58.50
30304;DHT22;17112;48.636;10.152;2023-07-29T11:42:59;28.00;56.70
30304;DHT22;17112;48.636;10.152;2023-07-29T11:45:25;28.00;55.40
30304;DHT22;17112;48.636;10.152;2023-07-29T11:47:52;28.00;54.40
30304;DHT22;17112;48.636;10.152;2023-07-29T11:50:17;28.00;55.00
30304;DHT22;17112;48.636;10.152;2023-07-29T11:52:45;27.90;55.10
30304;DHT22;17112;48.636;10.152;2023-07-29T11:55:12;27.90;56.00
30304;DHT22;17112;48.636;10.152;2023-07-29T11:57:39;28.00;55.10
30304;DHT22;17112;48.636;10.152;2023-07-29T12:00:07;28.00;54.80
30304;DHT22;17112;48.636;10.152;2023-07-29T12:02:37;28.10;54.10
30304;DHT22;17112;48.636;10.152;2023-07-29T12:05:04;28.10;53.90
30304;DHT22;17112;48.636;10.152;2023-07-29T12:07:31;28.20;54.20
30304;DHT22;17112;48.636;10.152;2023-07-29T12:09:59;28.20;54.20
30304;DHT22;17112;48.636;10.152;2023-07-29T12:12:24;28.20;55.00
30304;DHT22;17112;48.636;10.152;2023-07-29T12:14:50;28.30;55.00
30304;DHT22;17112;48.636;10.152;2023-07-29T12:17:16;28.40;55.20
30304;DHT22;17112;48.636;10.152;2023-07-29T12:19:42;28.50;54.70
30304;DHT22;17112;48.636;10.152;2023-07-29T12:22:10;28.50;54.20
30304;DHT22;17112;48.636;10.152;2023-07-29T12:24:38;28.50;54.30
30304;DHT22;17112;48.636;10.152;2023-07-29T12:27:04;28.40;54.60
30304;DHT22;17112;48.636;10.152;2023-07-29T12:29:30;28.30;54.60
30304;DHT22;17112;48.636;10.152;2023-07-29T12:32:01;28.30;55.10
30304;DHT22;17112;48.636;10.152;2023-07-29T12:34:28;28.30;55.10
30304;DHT22;17112;48.636;10.152;2023-07-29T12:36:55;28.40;55.80
30304;DHT22;17112;48.636;10.152;2023-07-29T12:41:50;28.60;55.00
30304;DHT22;17112;48.636;10.152;2023-07-29T12:44:16;28.60;53.80
30304;DHT22;17112;48.636;10.152;2023-07-29T12:46:41;28.60;53.20
30304;DHT22;17112;48.636;10.152;2023-07-29T12:49:07;28.60;54.10
30304;DHT22;17112;48.636;10.152;2023-07-29T12:51:33;28.60;54.30
30304;DHT22;17112;48.636;10.152;2023-07-29T12:54:00;28.60;54.40
30304;DHT22;17112;48.636;10.152;2023-07-29T12:56:26;28.60;54.50
30304;DHT22;17112;48.636;10.152;2023-07-29T12:58:52;28.60;54.20
30304;DHT22;17112;48.636;10.152;2023-07-29T13:01:18;28.60;54.70
30304;DHT22;17112;48.636;10.152;2023-07-29T13:03:47;28.70;54.80
30304;DHT22;17112;48.636;10.152;2023-07-29T13:06:13;28.80;54.00
30304;DHT22;17112;48.636;10.152;2023-07-29T13:08:39;28.90;53.90
30304;DHT22;17112;48.636;10.152;2023-07-29T13:11:05;28.90;53.60
30304;DHT22;17112;48.636;10.152;2023-07-29T13:13:31;28.90;53.70
30304;DHT22;17112;48.636;10.152;2023-07-29T13:15:57;28.90;52.80
30304;DHT22;17112;48.636;10.152;2023-07-29T13:18:23;28.80;53.30
30304;DHT22;17112;48.636;10.152;2023-07-29T13:20:48;28.80;53.50
30304;DHT22;17112;48.636;10.152;2023-07-29T13:23:15;28.70;53.80
30304;DHT22;17112;48.636;10.152;2023-07-29T13:25:41;28.70;54.30
30304;DHT22;17112;48.636;10.152;2023-07-29T13:28:08;28.80;55.00
30304;DHT22;17112;48.636;10.152;2023-07-29T13:30:34;28.80;54.80
30304;DHT22;17112;48.636;10.152;2023-07-29T13:32:59;28.90;54.50
30304;DHT22;17112;48.636;10.152;2023-07-29T13:35:25;29.00;53.90
30304;DHT22;17112;48.636;10.152;2023-07-29T13:37:51;29.10;53.80
30304;DHT22;17112;48.636;10.152;2023-07-29T13:40:16;29.20;53.50
30304;DHT22;17112;48.636;10.152;2023-07-29T13:42:42;29.20;53.30
30304;DHT22;17112;48.636;10.152;2023-07-29T13:45:08;29.20;53.30
30304;DHT22;17112;48.636;10.152;2023-07-29T13:47:34;29.30;52.20
30304;DHT22;17112;48.636;10.152;2023-07-29T13:50:00;29.30;51.70
30304;DHT22;17112;48.636;10.152;2023-07-29T13:52:26;29.30;51.90
30304;DHT22;17112;48.636;10.152;2023-07-29T13:54:52;29.30;51.20
30304;DHT22;17112;48.636;10.152;2023-07-29T13:57:17;29.30;51.00
30304;DHT22;17112;48.636;10.152;2023-07-29T13:59:43;29.30;50.40
30304;DHT22;17112;48.636;10.152;2023-07-29T14:02:09;29.20;50.10
30304;DHT22;17112;48.636;10.152;2023-07-29T14:04:35;29.10;51.20
30304;DHT22;17112;48.636;10.152;2023-07-29T14:07:00;29.00;51.60
30304;DHT22;17112;48.636;10.152;2023-07-29T14:09:27;28.90;51.70
30304;DHT22;17112;48.636;10.152;2023-07-29T14:11:54;28.90;52.40
30304;DHT22;17112;48.636;10.152;2023-07-29T14:14:20;28.90;52.70
30304;DHT22;17112;48.636;10.152;2023-07-29T14:16:46;28.90;52.80
30304;DHT22;17112;48.636;10.152;2023-07-29T14:19:12;28.90;52.20
30304;DHT22;17112;48.636;10.152;2023-07-29T14:21:38;28.90;52.00
30304;DHT22;17112;48.636;10.152;2023-07-29T14:24:04;29.00;53.00
30304;DHT22;17112;48.636;10.152;2023-07-29T14:26:29;29.00;51.70
30304;DHT22;17112;48.636;10.152;2023-07-29T14:28:55;29.00;50.80
30304;DHT22;17112;48.636;10.152;2023-07-29T14:31:21;29.00;51.10
30304;DHT22;17112;48.636;10.152;2023-07-29T14:33:47;29.00;51.40
30304;DHT22;17112;48.636;10.152;2023-07-29T14:36:15;29.00;51.00
30304;DHT22;17112;48.636;10.152;2023-07-29T14:38:41;29.00;51.00
30304;DHT22;17112;48.636;10.152;2023-07-29T14:41:06;29.00;50.60
30304;DHT22;17112;48.636;10.152;2023-07-29T14:43:32;28.90;50.30
30304;DHT22;17112;48.636;10.152;2023-07-29T14:45:58;28.90;50.30
30304;DHT22;17112;48.636;10.152;2023-07-29T14:48:23;28.80;49.80
30304;DHT22;17112;48.636;10.152;2023-07-29T14:50:49;28.80;50.20
30304;DHT22;17112;48.636;10.152;2023-07-29T14:53:15;28.70;49.50
30304;DHT22;17112;48.636;10.152;2023-07-29T14:55:40;28.70;49.40
30304;DHT22;17112;48.636;10.152;2023-07-29T14:58:06;28.70;49.20
30304;DHT22;17112;48.636;10.152;2023-07-29T15:00:32;28.70;47.80
30304;DHT22;17112;48.636;10.152;2023-07-29T15:02:58;28.70;47.30
30304;DHT22;17112;48.636;10.152;2023-07-29T15:05:24;28.70;47.00
30304;DHT22;17112;48.636;10.152;2023-07-29T15:07:50;28.60;46.70
30304;DHT22;17112;48.636;10.152;2023-07-29T15:10:16;28.60;47.10
30304;DHT22;17112;48.636;10.152;2023-07-29T15:12:43;28.60;46.90
30304;DHT22;17112;48.636;10.152;2023-07-29T15:15:10;28.60;47.00
30304;DHT22;17112;48.636;10.152;2023-07-29T15:17:35;28.60;46.90
30304;DHT22;17112;48.636;10.152;2023-07-29T15:20:02;28.70;46.90
30304;DHT22;17112;48.636;10.152;2023-07-29T15:22:29;28.70;47.00
30304;DHT22;17112;48.636;10.152;2023-07-29T15:24:55;28.70;46.60
30304;DHT22;17112;48.636;10.152;2023-07-29T15:27:20;28.70;46.40